sensor_id;sensor_type;location;lat;lon;timestamp;temperature;humidity
14908;DHT22;7545;52.092;7.006;2023-08-06T00:01:50;15.80;99.90
14908;DHT22;7545;52.092;7.006;2023-08-06T00:04:16;15.80;99.90
14908;DHT22;7545;52.092;7.006;2023-08-06T00:06:42;15.90;99.90
14908;DHT22;7545;52.092;7.006;2023-08-06T00:09:07;15.90;99.90
14908;DHT22;7545;52.092;7.006;2023-08-06T00:11:33;15.90;99.90
14908;DHT22;7545;52.092;7.006;2023-08-06T00:13:59;15.90;99.90
14908;DHT22;7545;52.092;7.006;2023-08-06T00:16:24;15.90;99.90
14908;DHT22;7545;52.092;7.006;2023-08-06T00:18:50;15.90;99.90
14908;DHT22;7545;52.092;7.006;2023-08-06T00:21:16;15.90;99.90
14908;DHT22;7545;52.092;7.006;2023-08-06T00:23:41;15.90;99.90
14908;DHT22;7545;52.092;7.006;2023-08-06T00:26:07;15.90;99.90
14908;DHT22;7545;52.092;7.006;2023-08-06T00:28:32;15.90;99.90
14908;DHT22;7545;52.092;7.006;2023-08-06T00:30:58;15.90;99.90
14908;DHT22;7545;52.092;7.006;2023-08-06T00:33:25;15.90;99.90
14908;DHT22;7545;52.092;7.006;2023-08-06T00:35:51;15.90;99.90
14908;DHT22;7545;52.092;7.006;2023-08-06T00:38:17;15.90;99.90
14908;DHT22;7545;52.092;7.006;2023-08-06T00:40:42;15.90;99.90
14908;DHT22;7545;52.092;7.006;2023-08-06T00:43:08;15.90;99.90
14908;DHT22;7545;52.092;7.006;2023-08-06T00:45:37;15.90;99.90
14908;DHT22;7545;52.092;7.006;2023-08-06T00:48:05;15.90;99.90
14908;DHT22;7545;52.092;7.006;2023-08-06T00:50:31;15.90;99.90
14908;DHT22;7545;52.092;7.006;2023-08-06T00:52:58;15.90;99.90
14908;DHT22;7545;52.092;7.006;2023-08-06T00:55:24;15.90;99.90
14908;DHT22;7545;52.092;7.006;2023-08-06T00:57:50;15.90;99.90
14908;DHT22;7545;52.092;7.006;2023-08-06T01:00:18;15.90;99.90
14908;DHT22;7545;52.092;7.006;2023-08-06T01:02:44;15.90;99.90
14908;DHT22;7545;52.092;7.006;2023-08-06T01:05:10;15.90;99.90
14908;DHT22;7545;52.092;7.006;2023-08-06T01:13:42;15.90;99.90
14908;DHT22;7545;52.092;7.006;2023-08-06T01:16:10;15.80;99.90
14908;DHT22;7545;52.092;7.006;2023-08-06T01:18:36;15.80;99.90
14908;DHT22;7545;52.092;7.006;2023-08-06T01:21:04;15.80;99.90
14908;DHT22;7545;52.092;7.006;2023-08-06T01:23:30;15.80;99.90
14908;DHT22;7545;52.092;7.006;2023-08-06T01:26:05;15.80;99.90
14908;DHT22;7545;52.092;7.006;2023-08-06T01:28:59;15.80;99.90
14908;DHT22;7545;52.092;7.006;2023-08-06T01:31:31;15.80;99.90
14908;DHT22;7545;52.092;7.006;2023-08-06T01:33:58;15.80;99.90
14908;DHT22;7545;52.092;7.006;2023-08-06T01:36:25;15.80;99.90
14908;DHT22;7545;52.092;7.006;2023-08-06T01:38:52;15.80;99.90
14908;DHT22;7545;52.092;7.006;2023-08-06T01:41:18;15.80;99.90
14908;DHT22;7545;52.092;7.006;2023-08-06T01:43:44;15.80;99.90
14908;DHT22;7545;52.092;7.006;2023-08-06T01:46:09;15.80;99.90
14908;DHT22;7545;52.092;7.006;2023-08-06T01:48:35;15.80;99.90
14908;DHT22;7545;52.092;7.006;2023-08-06T01:51:03;15.80;99.90
14908;DHT22;7545;52.092;7.006;2023-08-06T01:53:29;15.80;99.90
14908;DHT22;7545;52.092;7.006;2023-08-06T01:55:54;15.80;99.90
14908;DHT22;7545;52.092;7.006;2023-08-06T01:58:20;15.80;99.90
14908;DHT22;7545;52.092;7.006;2023-08-06T02:00:45;15.80;99.90
14908;DHT22;7545;52.092;7.006;2023-08-06T02:03:11;15.80;99.90
14908;DHT22;7545;52.092;7.006;2023-08-06T02:05:36;15.80;99.90
14908;DHT22;7545;52.092;7.006;2023-08-06T02:08:02;15.80;99.90
14908;DHT22;7545;52.092;7.006;2023-08-06T02:10:27;15.80;99.90
14908;DHT22;7545;52.092;7.006;2023-08-06T02:12:53;15.80;99.90
14908;DHT22;7545;52.092;7.006;2023-08-06T02:15:19;15.80;99.90
14908;DHT22;7545;52.092;7.006;2023-08-06T02:17:44;15.70;99.90
14908;DHT22;7545;52.092;7.006;2023-08-06T02:20:10;15.70;99.90
14908;DHT22;7545;52.092;7.006;2023-08-06T02:22:36;15.70;99.90
14908;DHT22;7545;52.092;7.006;2023-08-06T02:25:01;15.70;99.90
14908;DHT22;7545;52.092;7.006;2023-08-06T02:27:27;15.70;99.90
14908;DHT22;7545;52.092;7.006;2023-08-06T02:29:52;15.70;99.90
14908;DHT22;7545;52.092;7.006;2023-08-06T02:32:18;15.70;99.90
14908;DHT22;7545;52.092;7.006;2023-08-06T02:34:43;15.70;99.90
14908;DHT22;7545;52.092;7.006;2023-08-06T02:37:09;15.60;99.90
14908;DHT22;7545;52.092;7.006;2023-08-06T02:39:34;15.60;99.90
14908;DHT22;7545;52.092;7.006;2023-08-06T02:42:01;15.60;99.90
14908;DHT22;7545;52.092;7.006;2023-08-06T02:44:29;15.60;99.90
14908;DHT22;7545;52.092;7.006;2023-08-06T02:46:55;15.50;99.90
14908;DHT22;7545;52.092;7.006;2023-08-06T02:49:20;15.50;99.90
14908;DHT22;7545;52.092;7.006;2023-08-06T02:51:46;15.50;99.90
14908;DHT22;7545;52.092;7.006;2023-08-06T02:54:11;15.50;99.90
14908;DHT22;7545;52.092;7.006;2023-08-06T02:56:37;15.50;99.90
14908;DHT22;7545;52.092;7.006;2023-08-06T02:59:03;15.50;99.90
14908;DHT22;7545;52.092;7.006;2023-08-06T03:01:29;15.50;99.90
14908;DHT22;7545;52.092;7.006;2023-08-06T03:03:54;15.50;99.90
14908;DHT22;7545;52.092;7.006;2023-08-06T03:06:20;15.50;99.90
14908;DHT22;7545;52.092;7.006;2023-08-06T03:08:46;15.50;99.90
14908;DHT22;7545;52.092;7.006;2023-08-06T03:11:11;15.50;99.90
14908;DHT22;7545;52.092;7.006;2023-08-06T03:13:37;15.50;99.90
14908;DHT22;7545;52.092;7.006;2023-08-06T03:16:02;15.50;99.90
14908;DHT22;7545;52.092;7.006;2023-08-06T03:18:28;15.50;99.90
14908;DHT22;7545;52.092;7.006;2023-08-06T03:20:54;15.50;99.90
14908;DHT22;7545;52.092;7.006;2023-08-06T03:23:20;15.50;99.90
14908;DHT22;7545;52.092;7.006;2023-08-06T03:25:46;15.50;99.90
14908;DHT22;7545;52.092;7.006;2023-08-06T03:28:12;15.50;99.90
14908;DHT22;7545;52.092;7.006;2023-08-06T03:30:37;15.50;99.90
14908;DHT22;7545;52.092;7.006;2023-08-06T03:33:03;15.50;99.90
14908;DHT22;7545;52.092;7.006;2023-08-06T03:35:29;15.50;99.90
14908;DHT22;7545;52.092;7.006;2023-08-06T03:37:54;15.50;99.90
14908;DHT22;7545;52.092;7.006;2023-08-06T03:40:20;15.50;99.90
14908;DHT22;7545;52.092;7.006;2023-08-06T03:42:46;15.50;99.90
14908;DHT22;7545;52.092;7.006;2023-08-06T03:45:11;15.50;99.90
14908;DHT22;7545;52.092;7.006;2023-08-06T03:47:37;15.50;99.90
14908;DHT22;7545;52.092;7.006;2023-08-06T03:50:03;15.50;99.90
14908;DHT22;7545;52.092;7.006;2023-08-06T03:52:28;15.50;99.90
14908;DHT22;7545;52.092;7.006;2023-08-06T03:54:54;15.50;99.90
14908;DHT22;7545;52.092;7.006;2023-08-06T03:57:19;15.50;99.90
14908;DHT22;7545;52.092;7.006;2023-08-06T03:59:45;15.50;99.90
14908;DHT22;7545;52.092;7.006;2023-08-06T04:02:10;15.50;99.90
14908;DHT22;7545;52.092;7.006;2023-08-06T04:04:36;15.50;99.90
14908;DHT22;7545;52.092;7.006;2023-08-06T04:07:02;15.50;99.90
14908;DHT22;7545;52.092;7.006;2023-08-06T04:09:28;15.50;99.90
14908;DHT22;7545;52.092;7.006;2023-08-06T04:11:54;15.50;99.90
14908;DHT22;7545;52.092;7.006;2023-08-06T04:14:20;15.50;99.90
14908;DHT22;7545;52.092;7.006;2023-08-06T04:16:45;15.50;99.90
14908;DHT22;7545;52.092;7.006;2023-08-06T04:19:11;15.50;99.90
14908;DHT22;7545;52.092;7.006;2023-08-06T04:21:36;15.50;99.90
14908;DHT22;7545;52.092;7.006;2023-08-06T04:24:02;15.50;99.90
14908;DHT22;7545;52.092;7.006;2023-08-06T04:26:28;15.50;99.90
14908;DHT22;7545;52.092;7.006;2023-08-06T04:28:57;15.50;99.90
14908;DHT22;7545;52.092;7.006;2023-08-06T04:31:22;15.50;99.90
14908;DHT22;7545;52.092;7.006;2023-08-06T04:33:48;15.50;99.90
14908;DHT22;7545;52.092;7.006;2023-08-06T04:36:14;15.50;99.90
14908;DHT22;7545;52.092;7.006;2023-08-06T04:38:39;15.50;99.90
14908;DHT22;7545;52.092;7.006;2023-08-06T04:41:10;15.60;99.90
14908;DHT22;7545;52.092;7.006;2023-08-06T04:43:35;15.60;99.90
14908;DHT22;7545;52.092;7.006;2023-08-06T04:46:01;15.60;99.90
14908;DHT22;7545;52.092;7.006;2023-08-06T04:48:26;15.60;99.90
14908;DHT22;7545;52.092;7.006;2023-08-06T04:50:52;15.60;99.90
14908;DHT22;7545;52.092;7.006;2023-08-06T04:53:17;15.60;99.90
14908;DHT22;7545;52.092;7.006;2023-08-06T04:55:43;15.60;99.90
14908;DHT22;7545;52.092;7.006;2023-08-06T04:58:10;15.60;99.90
14908;DHT22;7545;52.092;7.006;2023-08-06T05:00:36;15.60;99.90
14908;DHT22;7545;52.092;7.006;2023-08-06T05:03:01;15.60;99.90
14908;DHT22;7545;52.092;7.006;2023-08-06T05:05:28;15.60;99.90
14908;DHT22;7545;52.092;7.006;2023-08-06T05:07:55;15.70;99.90
14908;DHT22;7545;52.092;7.006;2023-08-06T05:10:23;15.70;99.90
14908;DHT22;7545;52.092;7.006;2023-08-06T05:12:49;15.70;99.90
14908;DHT22;7545;52.092;7.006;2023-08-06T05:15:15;15.70;99.90
14908;DHT22;7545;52.092;7.006;2023-08-06T05:17:40;15.70;99.90
14908;DHT22;7545;52.092;7.006;2023-08-06T05:20:06;15.80;99.90
14908;DHT22;7545;52.092;7.006;2023-08-06T05:22:32;15.80;99.90
14908;DHT22;7545;52.092;7.006;2023-08-06T05:24:57;15.80;99.90
14908;DHT22;7545;52.092;7.006;2023-08-06T05:27:23;15.80;99.90
14908;DHT22;7545;52.092;7.006;2023-08-06T05:29:48;15.80;99.90
14908;DHT22;7545;52.092;7.006;2023-08-06T05:32:14;15.90;99.90
14908;DHT22;7545;52.092;7.006;2023-08-06T05:34:40;15.90;99.90
14908;DHT22;7545;52.092;7.006;2023-08-06T05:37:06;15.90;99.90
14908;DHT22;7545;52.092;7.006;2023-08-06T05:39:32;15.90;99.90
14908;DHT22;7545;52.092;7.006;2023-08-06T05:41:58;15.90;99.90
14908;DHT22;7545;52.092;7.006;2023-08-06T05:44:23;16.00;99.90
14908;DHT22;7545;52.092;7.006;2023-08-06T05:46:49;16.00;99.90
14908;DHT22;7545;52.092;7.006;2023-08-06T05:49:15;16.00;99.90
14908;DHT22;7545;52.092;7.006;2023-08-06T05:51:41;16.00;99.90
14908;DHT22;7545;52.092;7.006;2023-08-06T05:54:07;16.00;99.90
14908;DHT22;7545;52.092;7.006;2023-08-06T05:56:33;16.10;99.90
14908;DHT22;7545;52.092;7.006;2023-08-06T05:58:58;16.10;99.90
14908;DHT22;7545;52.092;7.006;2023-08-06T06:01:24;16.10;99.90
14908;DHT22;7545;52.092;7.006;2023-08-06T06:03:50;16.10;99.90
14908;DHT22;7545;52.092;7.006;2023-08-06T06:06:15;16.20;99.90
14908;DHT22;7545;52.092;7.006;2023-08-06T06:08:41;16.20;99.90
14908;DHT22;7545;52.092;7.006;2023-08-06T06:11:07;16.20;99.90
14908;DHT22;7545;52.092;7.006;2023-08-06T06:13:33;16.20;99.90
14908;DHT22;7545;52.092;7.006;2023-08-06T06:15:58;16.30;99.90
14908;DHT22;7545;52.092;7.006;2023-08-06T06:18:24;16.30;99.90
14908;DHT22;7545;52.092;7.006;2023-08-06T06:20:50;16.30;99.90
14908;DHT22;7545;52.092;7.006;2023-08-06T06:23:15;16.40;99.90
14908;DHT22;7545;52.092;7.006;2023-08-06T06:25:48;16.40;99.90
14908;DHT22;7545;52.092;7.006;2023-08-06T06:28:13;16.40;99.90
14908;DHT22;7545;52.092;7.006;2023-08-06T06:30:41;16.40;99.90
14908;DHT22;7545;52.092;7.006;2023-08-06T06:33:07;16.40;99.90
14908;DHT22;7545;52.092;7.006;2023-08-06T06:35:34;16.50;99.90
14908;DHT22;7545;52.092;7.006;2023-08-06T06:37:59;16.50;99.90
14908;DHT22;7545;52.092;7.006;2023-08-06T06:40:25;16.50;99.90
14908;DHT22;7545;52.092;7.006;2023-08-06T06:42:51;16.50;99.90
14908;DHT22;7545;52.092;7.006;2023-08-06T06:45:17;16.50;99.90
14908;DHT22;7545;52.092;7.006;2023-08-06T06:47:42;16.50;99.90
14908;DHT22;7545;52.092;7.006;2023-08-06T06:50:08;16.60;99.90
14908;DHT22;7545;52.092;7.006;2023-08-06T06:52:34;16.60;99.90
14908;DHT22;7545;52.092;7.006;2023-08-06T06:55:00;16.60;99.90
14908;DHT22;7545;52.092;7.006;2023-08-06T06:57:25;16.70;99.90
14908;DHT22;7545;52.092;7.006;2023-08-06T06:59:51;16.70;99.90
14908;DHT22;7545;52.092;7.006;2023-08-06T07:02:16;16.70;99.90
14908;DHT22;7545;52.092;7.006;2023-08-06T07:04:42;16.70;99.90
14908;DHT22;7545;52.092;7.006;2023-08-06T07:07:07;16.80;99.90
14908;DHT22;7545;52.092;7.006;2023-08-06T07:09:33;16.70;99.90
14908;DHT22;7545;52.092;7.006;2023-08-06T07:11:58;16.70;99.90
14908;DHT22;7545;52.092;7.006;2023-08-06T07:14:25;16.70;99.90
14908;DHT22;7545;52.092;7.006;2023-08-06T07:16:51;16.80;99.90
14908;DHT22;7545;52.092;7.006;2023-08-06T07:19:16;16.90;99.90
14908;DHT22;7545;52.092;7.006;2023-08-06T07:21:42;16.90;99.90
14908;DHT22;7545;52.092;7.006;2023-08-06T07:24:08;16.90;99.90
14908;DHT22;7545;52.092;7.006;2023-08-06T07:26:33;17.00;99.90
14908;DHT22;7545;52.092;7.006;2023-08-06T07:28:59;17.00;99.90
14908;DHT22;7545;52.092;7.006;2023-08-06T07:31:24;17.00;99.90
14908;DHT22;7545;52.092;7.006;2023-08-06T07:33:50;17.10;99.90
14908;DHT22;7545;52.092;7.006;2023-08-06T07:36:16;17.10;99.90
14908;DHT22;7545;52.092;7.006;2023-08-06T07:38:42;17.20;99.90
14908;DHT22;7545;52.092;7.006;2023-08-06T07:41:08;17.20;99.90
14908;DHT22;7545;52.092;7.006;2023-08-06T07:43:34;17.30;99.90
14908;DHT22;7545;52.092;7.006;2023-08-06T07:46:01;17.30;99.90
14908;DHT22;7545;52.092;7.006;2023-08-06T07:48:27;17.30;99.90
14908;DHT22;7545;52.092;7.006;2023-08-06T07:50:56;17.30;99.90
14908;DHT22;7545;52.092;7.006;2023-08-06T07:53:23;17.30;99.90
14908;DHT22;7545;52.092;7.006;2023-08-06T07:55:53;17.40;99.90
14908;DHT22;7545;52.092;7.006;2023-08-06T07:58:19;17.40;99.90
14908;DHT22;7545;52.092;7.006;2023-08-06T08:00:45;17.30;99.90
14908;DHT22;7545;52.092;7.006;2023-08-06T08:03:12;17.30;99.90
14908;DHT22;7545;52.092;7.006;2023-08-06T08:05:41;17.30;99.90
14908;DHT22;7545;52.092;7.006;2023-08-06T08:08:07;17.30;99.90
14908;DHT22;7545;52.092;7.006;2023-08-06T08:10:34;17.30;99.90
14908;DHT22;7545;52.092;7.006;2023-08-06T08:13:01;17.20;99.90
14908;DHT22;7545;52.092;7.006;2023-08-06T08:15:28;17.20;99.90
14908;DHT22;7545;52.092;7.006;2023-08-06T08:17:54;17.30;99.90
14908;DHT22;7545;52.092;7.006;2023-08-06T08:20:20;17.20;99.90
14908;DHT22;7545;52.092;7.006;2023-08-06T08:22:46;17.20;99.90
14908;DHT22;7545;52.092;7.006;2023-08-06T08:25:12;17.20;99.90
14908;DHT22;7545;52.092;7.006;2023-08-06T08:27:38;17.20;99.90
14908;DHT22;7545;52.092;7.006;2023-08-06T08:30:04;17.20;99.90
14908;DHT22;7545;52.092;7.006;2023-08-06T08:32:30;17.20;99.90
14908;DHT22;7545;52.092;7.006;2023-08-06T08:34:55;17.20;99.90
14908;DHT22;7545;52.092;7.006;2023-08-06T08:37:21;17.20;99.90
14908;DHT22;7545;52.092;7.006;2023-08-06T08:39:46;17.10;99.90
14908;DHT22;7545;52.092;7.006;2023-08-06T08:42:12;17.10;99.90
14908;DHT22;7545;52.092;7.006;2023-08-06T08:44:40;17.20;99.90
14908;DHT22;7545;52.092;7.006;2023-08-06T08:47:07;17.20;99.90
14908;DHT22;7545;52.092;7.006;2023-08-06T08:49:35;17.20;99.90
14908;DHT22;7545;52.092;7.006;2023-08-06T08:52:03;17.20;99.90
14908;DHT22;7545;52.092;7.006;2023-08-06T08:54:32;17.20;99.90
14908;DHT22;7545;52.092;7.006;2023-08-06T08:56:58;17.20;99.90
14908;DHT22;7545;52.092;7.006;2023-08-06T08:59:24;17.20;99.90
14908;DHT22;7545;52.092;7.006;2023-08-06T09:01:50;17.20;99.90
14908;DHT22;7545;52.092;7.006;2023-08-06T09:04:17;17.20;99.90
14908;DHT22;7545;52.092;7.006;2023-08-06T09:06:43;17.20;99.90
14908;DHT22;7545;52.092;7.006;2023-08-06T09:09:25;17.20;99.90
14908;DHT22;7545;52.092;7.006;2023-08-06T09:11:52;17.30;99.90
14908;DHT22;7545;52.092;7.006;2023-08-06T09:14:18;17.30;99.90
14908;DHT22;7545;52.092;7.006;2023-08-06T09:16:43;17.30;99.90
14908;DHT22;7545;52.092;7.006;2023-08-06T09:19:10;17.30;99.90
14908;DHT22;7545;52.092;7.006;2023-08-06T09:21:41;17.30;99.90
14908;DHT22;7545;52.092;7.006;2023-08-06T09:24:11;17.30;99.90
14908;DHT22;7545;52.092;7.006;2023-08-06T09:26:38;17.30;99.90
14908;DHT22;7545;52.092;7.006;2023-08-06T09:29:08;17.30;99.90
14908;DHT22;7545;52.092;7.006;2023-08-06T09:31:44;17.40;99.90
14908;DHT22;7545;52.092;7.006;2023-08-06T09:34:21;17.40;99.90
14908;DHT22;7545;52.092;7.006;2023-08-06T09:36:51;17.40;99.90
14908;DHT22;7545;52.092;7.006;2023-08-06T09:39:29;17.40;99.90
14908;DHT22;7545;52.092;7.006;2023-08-06T09:41:56;17.50;99.90
14908;DHT22;7545;52.092;7.006;2023-08-06T09:44:22;17.50;99.90
14908;DHT22;7545;52.092;7.006;2023-08-06T09:46:50;17.50;99.90
14908;DHT22;7545;52.092;7.006;2023-08-06T09:49:21;17.60;99.90
14908;DHT22;7545;52.092;7.006;2023-08-06T09:51:47;17.60;99.90
14908;DHT22;7545;52.092;7.006;2023-08-06T09:54:16;17.60;99.90
14908;DHT22;7545;52.092;7.006;2023-08-06T09:56:42;17.70;99.90
14908;DHT22;7545;52.092;7.006;2023-08-06T09:59:08;17.70;99.90
14908;DHT22;7545;52.092;7.006;2023-08-06T10:01:35;17.70;99.90
14908;DHT22;7545;52.092;7.006;2023-08-06T10:04:05;17.80;99.90
14908;DHT22;7545;52.092;7.006;2023-08-06T10:06:37;17.80;99.90
14908;DHT22;7545;52.092;7.006;2023-08-06T10:09:06;17.80;99.90
14908;DHT22;7545;52.092;7.006;2023-08-06T10:11:33;17.80;99.90
14908;DHT22;7545;52.092;7.006;2023-08-06T10:14:05;17.80;99.90
14908;DHT22;7545;52.092;7.006;2023-08-06T10:16:33;17.80;99.90
14908;DHT22;7545;52.092;7.006;2023-08-06T10:18:59;17.80;99.90
14908;DHT22;7545;52.092;7.006;2023-08-06T10:21:26;17.90;99.90
14908;DHT22;7545;52.092;7.006;2023-08-06T10:23:56;18.00;99.90
14908;DHT22;7545;52.092;7.006;2023-08-06T10:26:29;18.00;99.90
14908;DHT22;7545;52.092;7.006;2023-08-06T10:28:55;18.10;99.90
14908;DHT22;7545;52.092;7.006;2023-08-06T10:31:54;18.10;99.90
14908;DHT22;7545;52.092;7.006;2023-08-06T10:34:20;18.20;99.90
14908;DHT22;7545;52.092;7.006;2023-08-06T10:36:46;18.20;99.90
14908;DHT22;7545;52.092;7.006;2023-08-06T10:39:14;18.30;99.90
14908;DHT22;7545;52.092;7.006;2023-08-06T10:41:42;18.40;99.90
14908;DHT22;7545;52.092;7.006;2023-08-06T10:44:10;18.40;99.90
14908;DHT22;7545;52.092;7.006;2023-08-06T10:46:37;18.40;99.90
14908;DHT22;7545;52.092;7.006;2023-08-06T10:49:06;18.50;99.90
14908;DHT22;7545;52.092;7.006;2023-08-06T10:51:33;18.60;99.90
14908;DHT22;7545;52.092;7.006;2023-08-06T10:53:58;18.70;99.90
14908;DHT22;7545;52.092;7.006;2023-08-06T10:56:25;18.80;99.90
14908;DHT22;7545;52.092;7.006;2023-08-06T10:58:54;18.80;99.90
14908;DHT22;7545;52.092;7.006;2023-08-06T11:01:22;18.90;99.90
14908;DHT22;7545;52.092;7.006;2023-08-06T11:03:48;18.90;99.90
14908;DHT22;7545;52.092;7.006;2023-08-06T11:06:22;18.90;99.90
14908;DHT22;7545;52.092;7.006;2023-08-06T11:08:50;18.80;99.90
14908;DHT22;7545;52.092;7.006;2023-08-06T11:11:16;18.80;99.90
14908;DHT22;7545;52.092;7.006;2023-08-06T11:13:43;18.90;99.90
14908;DHT22;7545;52.092;7.006;2023-08-06T11:16:30;18.90;99.90
14908;DHT22;7545;52.092;7.006;2023-08-06T11:18:56;18.90;99.90
14908;DHT22;7545;52.092;7.006;2023-08-06T11:21:23;19.00;99.90
14908;DHT22;7545;52.092;7.006;2023-08-06T11:23:50;19.10;99.90
14908;DHT22;7545;52.092;7.006;2023-08-06T11:26:20;19.10;99.90
14908;DHT22;7545;52.092;7.006;2023-08-06T11:28:46;19.20;99.90
14908;DHT22;7545;52.092;7.006;2023-08-06T11:31:24;19.30;99.90
14908;DHT22;7545;52.092;7.006;2023-08-06T11:33:53;19.40;99.90
14908;DHT22;7545;52.092;7.006;2023-08-06T11:36:29;19.50;99.90
14908;DHT22;7545;52.092;7.006;2023-08-06T11:38:57;19.60;99.90
14908;DHT22;7545;52.092;7.006;2023-08-06T11:41:22;19.60;99.90
14908;DHT22;7545;52.092;7.006;2023-08-06T11:43:48;19.70;99.90
14908;DHT22;7545;52.092;7.006;2023-08-06T11:46:14;19.80;99.90
14908;DHT22;7545;52.092;7.006;2023-08-06T11:51:18;19.80;99.90
14908;DHT22;7545;52.092;7.006;2023-08-06T11:53:48;19.90;99.90
14908;DHT22;7545;52.092;7.006;2023-08-06T11:56:15;20.00;99.90
14908;DHT22;7545;52.092;7.006;2023-08-06T11:58:42;19.90;99.90
14908;DHT22;7545;52.092;7.006;2023-08-06T12:01:07;19.90;99.90
14908;DHT22;7545;52.092;7.006;2023-08-06T12:03:38;19.80;99.90
14908;DHT22;7545;52.092;7.006;2023-08-06T12:06:04;19.70;99.90
14908;DHT22;7545;52.092;7.006;2023-08-06T12:08:29;19.70;99.90
14908;DHT22;7545;52.092;7.006;2023-08-06T12:10:55;19.60;99.90
14908;DHT22;7545;52.092;7.006;2023-08-06T12:13:20;19.60;99.90
14908;DHT22;7545;52.092;7.006;2023-08-06T12:15:46;19.50;99.90
14908;DHT22;7545;52.092;7.006;2023-08-06T12:18:12;19.50;99.90
14908;DHT22;7545;52.092;7.006;2023-08-06T12:20:37;19.40;99.90
14908;DHT22;7545;52.092;7.006;2023-08-06T12:23:04;19.30;99.90
14908;DHT22;7545;52.092;7.006;2023-08-06T12:25:29;19.30;99.90
14908;DHT22;7545;52.092;7.006;2023-08-06T12:27:55;19.30;99.90
14908;DHT22;7545;52.092;7.006;2023-08-06T12:30:21;19.30;99.90
14908;DHT22;7545;52.092;7.006;2023-08-06T12:32:46;19.30;99.90
14908;DHT22;7545;52.092;7.006;2023-08-06T12:35:12;19.30;99.90
14908;DHT22;7545;52.092;7.006;2023-08-06T12:37:39;19.30;99.90
14908;DHT22;7545;52.092;7.006;2023-08-06T12:40:05;19.20;99.90
14908;DHT22;7545;52.092;7.006;2023-08-06T12:42:31;19.20;99.90
14908;DHT22;7545;52.092;7.006;2023-08-06T12:44:57;19.20;99.90
14908;DHT22;7545;52.092;7.006;2023-08-06T12:47:22;19.10;99.90
14908;DHT22;7545;52.092;7.006;2023-08-06T12:49:49;19.10;99.90
14908;DHT22;7545;52.092;7.006;2023-08-06T12:52:15;19.10;99.90
14908;DHT22;7545;52.092;7.006;2023-08-06T12:54:41;19.10;99.90
14908;DHT22;7545;52.092;7.006;2023-08-06T12:57:07;19.10;99.90
14908;DHT22;7545;52.092;7.006;2023-08-06T12:59:33;19.10;99.90
14908;DHT22;7545;52.092;7.006;2023-08-06T13:01:59;19.10;99.90
14908;DHT22;7545;52.092;7.006;2023-08-06T13:04:25;19.00;99.90
14908;DHT22;7545;52.092;7.006;2023-08-06T13:06:50;19.00;99.90
14908;DHT22;7545;52.092;7.006;2023-08-06T13:09:16;18.90;99.90
14908;DHT22;7545;52.092;7.006;2023-08-06T13:11:42;18.90;99.90
14908;DHT22;7545;52.092;7.006;2023-08-06T13:14:12;18.90;99.90
14908;DHT22;7545;52.092;7.006;2023-08-06T13:16:40;18.80;99.90
14908;DHT22;7545;52.092;7.006;2023-08-06T13:19:06;18.80;99.90
14908;DHT22;7545;52.092;7.006;2023-08-06T13:24:08;18.80;99.90
14908;DHT22;7545;52.092;7.006;2023-08-06T13:26:33;18.80;99.90
14908;DHT22;7545;52.092;7.006;2023-08-06T13:29:00;18.80;99.90
14908;DHT22;7545;52.092;7.006;2023-08-06T13:31:32;18.80;99.90
14908;DHT22;7545;52.092;7.006;2023-08-06T13:33:57;18.90;99.90
14908;DHT22;7545;52.092;7.006;2023-08-06T13:36:24;18.90;99.90
14908;DHT22;7545;52.092;7.006;2023-08-06T13:38:49;19.00;99.90
14908;DHT22;7545;52.092;7.006;2023-08-06T13:41:16;19.00;99.90
14908;DHT22;7545;52.092;7.006;2023-08-06T13:43:41;19.00;99.90
14908;DHT22;7545;52.092;7.006;2023-08-06T13:46:07;19.00;99.90
14908;DHT22;7545;52.092;7.006;2023-08-06T13:48:33;19.00;99.90
14908;DHT22;7545;52.092;7.006;2023-08-06T13:50:58;19.00;99.90
14908;DHT22;7545;52.092;7.006;2023-08-06T13:53:24;18.90;99.90
14908;DHT22;7545;52.092;7.006;2023-08-06T13:55:55;18.90;99.90
14908;DHT22;7545;52.092;7.006;2023-08-06T13:58:21;19.00;99.90
14908;DHT22;7545;52.092;7.006;2023-08-06T14:00:47;19.00;99.90
14908;DHT22;7545;52.092;7.006;2023-08-06T14:03:12;19.00;99.90
14908;DHT22;7545;52.092;7.006;2023-08-06T14:05:38;19.10;99.90
14908;DHT22;7545;52.092;7.006;2023-08-06T14:08:03;19.10;99.90
14908;DHT22;7545;52.092;7.006;2023-08-06T14:10:29;19.10;99.90
14908;DHT22;7545;52.092;7.006;2023-08-06T14:12:54;19.00;99.90
14908;DHT22;7545;52.092;7.006;2023-08-06T14:15:20;18.90;99.90
14908;DHT22;7545;52.092;7.006;2023-08-06T14:17:48;18.90;99.90
14908;DHT22;7545;52.092;7.006;2023-08-06T14:20:14;18.80;99.90
14908;DHT22;7545;52.092;7.006;2023-08-06T14:22:40;18.80;99.90
14908;DHT22;7545;52.092;7.006;2023-08-06T14:25:06;18.80;99.90
14908;DHT22;7545;52.092;7.006;2023-08-06T14:27:32;18.90;99.90
14908;DHT22;7545;52.092;7.006;2023-08-06T14:29:57;19.00;99.90
14908;DHT22;7545;52.092;7.006;2023-08-06T14:32:23;19.10;99.90
14908;DHT22;7545;52.092;7.006;2023-08-06T14:34:48;19.20;99.90
14908;DHT22;7545;52.092;7.006;2023-08-06T14:37:14;19.20;99.90
14908;DHT22;7545;52.092;7.006;2023-08-06T14:39:40;19.30;99.90
14908;DHT22;7545;52.092;7.006;2023-08-06T14:42:06;19.30;99.90
14908;DHT22;7545;52.092;7.006;2023-08-06T14:44:31;19.30;99.90
14908;DHT22;7545;52.092;7.006;2023-08-06T14:46:57;19.20;99.90
14908;DHT22;7545;52.092;7.006;2023-08-06T14:49:23;19.20;99.90
14908;DHT22;7545;52.092;7.006;2023-08-06T14:51:50;19.10;99.90
14908;DHT22;7545;52.092;7.006;2023-08-06T14:54:15;19.10;99.90
14908;DHT22;7545;52.092;7.006;2023-08-06T14:56:41;19.00;99.90
14908;DHT22;7545;52.092;7.006;2023-08-06T14:59:07;18.90;99.90
14908;DHT22;7545;52.092;7.006;2023-08-06T15:01:32;18.80;99.90
14908;DHT22;7545;52.092;7.006;2023-08-06T15:03:58;18.80;99.90
14908;DHT22;7545;52.092;7.006;2023-08-06T15:06:24;18.70;99.90
14908;DHT22;7545;52.092;7.006;2023-08-06T15:08:50;18.60;99.90
14908;DHT22;7545;52.092;7.006;2023-08-06T15:11:15;18.50;99.90
14908;DHT22;7545;52.092;7.006;2023-08-06T15:13:41;18.50;99.90
14908;DHT22;7545;52.092;7.006;2023-08-06T15:16:06;18.50;99.90
14908;DHT22;7545;52.092;7.006;2023-08-06T15:18:32;18.40;99.90
14908;DHT22;7545;52.092;7.006;2023-08-06T15:20:58;18.40;99.90
14908;DHT22;7545;52.092;7.006;2023-08-06T15:23:24;18.40;99.90
14908;DHT22;7545;52.092;7.006;2023-08-06T15:25:50;18.30;99.90
14908;DHT22;7545;52.092;7.006;2023-08-06T15:28:16;18.30;99.90
14908;DHT22;7545;52.092;7.006;2023-08-06T15:30:49;18.30;99.90
14908;DHT22;7545;52.092;7.006;2023-08-06T15:33:15;18.20;99.90
14908;DHT22;7545;52.092;7.006;2023-08-06T15:35:40;18.10;99.90
14908;DHT22;7545;52.092;7.006;2023-08-06T15:38:06;18.00;99.90
14908;DHT22;7545;52.092;7.006;2023-08-06T15:40:32;17.90;99.90
14908;DHT22;7545;52.092;7.006;2023-08-06T15:42:57;17.80;99.90
14908;DHT22;7545;52.092;7.006;2023-08-06T15:45:23;17.60;99.90
14908;DHT22;7545;52.092;7.006;2023-08-06T15:47:48;17.60;99.90
14908;DHT22;7545;52.092;7.006;2023-08-06T15:50:17;17.50;99.90
14908;DHT22;7545;52.092;7.006;2023-08-06T15:52:42;17.50;99.90